EST,Max TemperatureF,Mean TemperatureF,Min TemperatureF,Max Dew PointF,MeanDew PointF,Min DewpointF,Max Humidity, Mean Humidity, Min Humidity, Max Sea Level PressureIn, Mean Sea Level PressureIn, Min Sea Level PressureIn, Max VisibilityMiles, Mean VisibilityMiles, Min VisibilityMiles, Max Wind SpeedMPH, Mean Wind SpeedMPH, Max Gust SpeedMPH,PrecipitationIn, CloudCover, Events, WindDirDegrees
2012-12-1,46,40,35,39,35,31,93,86,74,30.47,30.41,30.36,7,4,1,9,6,,0.00,7,,60
2012-12-2,50,44,39,45,41,37,97,90,74,30.40,30.26,30.14,5,2,0,8,4,,0.01,7,Fog-Rain,131
2012-12-3,64,52,39,51,46,39,100,85,63,30.25,30.20,30.14,10,4,0,9,1,,0.00,5,Fog,328
2012-12-4,64,56,48,54,50,46,100,84,67,30.23,30.15,29.96,10,4,1,9,4,,0.01,5,Rain,116
2012-12-5,61,48,32,50,32,18,80,57,45,30.30,30.13,29.94,10,10,10,23,11,32,0.00,2,Rain,309
2012-12-6,39,33,27,23,20,17,78,62,48,30.39,30.32,30.26,10,10,9,9,4,,0.00,0,,24
2012-12-7,41,34,28,40,35,22,96,90,78,30.25,30.09,29.99,10,4,0,6,3,,0.14,7,Fog-Rain,89
2012-12-8,48,44,41,45,43,39,100,93,86,30.03,29.95,29.89,2,1,0,6,2,,0.01,8,Fog-Rain,10
2012-12-9,46,42,39,46,40,37,100,93,85,30.22,30.12,29.99,7,2,0,14,4,,0.18,8,Fog-Rain,74
2012-12-10,52,46,39,52,46,39,100,96,83,29.96,29.69,29.56,10,1,0,14,3,24,0.02,8,Fog-Rain,40
2012-12-11,48,40,30,43,33,24,86,72,50,30.22,29.95,29.65,10,10,5,17,10,25,0.05,4,Rain,302
2012-12-12,41,34,28,28,25,23,85,72,53,30.45,30.38,30.22,10,9,6,7,3,,0.00,0,,304
2012-12-13,43,35,27,26,23,20,85,65,43,30.48,30.42,30.35,10,8,4,6,0,,0.00,0,,125
2012-12-14,48,36,24,28,25,20,88,70,46,30.33,30.27,30.21,10,7,3,6,1,,0.00,0,,290
2012-12-15,46,36,26,33,29,23,89,75,54,30.33,30.24,30.16,8,5,3,7,2,,0.00,1,,105
2012-12-16,48,44,39,45,42,33,96,87,74,30.14,29.95,29.85,9,4,0,7,4,,0.15,8,Fog-Rain,98
2012-12-17,46,44,42,45,43,41,100,94,90,29.87,29.78,29.56,5,2,0,10,6,,0.29,8,Fog-Rain,81
2012-12-18,55,47,37,46,40,28,100,83,58,29.76,29.58,29.51,10,5,0,28,7,37,0.03,6,Fog-Rain,291
2012-12-19,45,39,33,32,29,27,82,69,56,30.17,29.95,29.78,10,9,6,20,8,26,0.00,3,,298
2012-12-20,45,36,30,42,31,25,93,80,55,30.21,30.01,29.55,10,7,3,21,7,29,0.52,3,Rain,113
2012-12-21,53,43,33,50,34,24,94,75,59,29.45,29.32,29.22,10,7,2,30,20,39,0.83,8,Rain-Snow,267
2012-12-22,37,34,30,26,21,19,73,55,47,29.96,29.74,29.45,10,10,3,28,23,44,0.00,7,Snow,292
2012-12-23,45,36,27,22,20,15,75,57,31,30.04,29.97,29.88,10,10,10,14,8,,0.00,2,,263
2012-12-24,37,30,23,31,26,18,96,81,54,30.09,29.99,29.91,10,4,0,10,5,,0.17,5,Fog-Snow,91
2012-12-25,41,36,30,32,29,23,96,82,62,30.27,30.08,29.90,10,5,0,14,5,,0.00,6,Fog,318
2012-12-26,37,32,28,33,26,20,93,81,69,30.29,29.90,29.39,10,6,0,23,12,38,0.32,8,Fog-Rain-Snow,69
2012-12-27,37,34,32,34,28,22,92,79,64,29.97,29.60,29.36,10,8,2,26,16,36,0.26,8,Rain-Snow,314
2012-12-28,37,32,28,25,24,22,85,68,59,30.13,30.07,29.97,10,10,7,13,9,,0.00,4,,316
2012-12-29,33,30,28,28,26,23,93,86,66,30.03,29.73,29.56,10,3,0,17,6,25,0.19,8,Fog-Snow,54
2012-12-30,34,30,27,22,20,17,69,62,54,30.26,30.07,29.77,10,10,10,23,16,32,0.00,5,,298
2012-12-31,39,31,23,27,20,16,75,64,52,30.27,30.13,29.95,10,10,8,10,7,,0.00,2,,248